Etusivu
METAR-TAF:

METAR-TAF

Lentoasemat :

Menominee-Marinette Twin County Airport

Menominee, Michigan, Yhdysvallat

Leveyspiiri: 45-08N, Pituuspiiri: 087-38W, korkeus merenpinnasta: 191 m

Tämänhetkinen sää

Tämä raportti tehtiin 12 minuuttia sitten, kello 18.56 UTC
Tuuli 4 kn eri suunnista
Lämpötila 31°C
Kosteus 46%
Ilmanpaine 1015 hPa
Näkyvyys: 16.1 km
selkeää

METAR: KMNM 261856Z AUTO VRB04KT 10SM CLR 31/18 A2996 RMK AO2 SLP139 T03110183 PNO $

Aika: 15:08 (19:08 UTC)


TAF: puuttuu

Säähavainnot ja -ennusteet yli 4000 lentoasemalta (METAR- ja TAF-raportit).

Käytössä olevat sääasemat on merkitty karttaan keltaisilla ja punaisilla pisteillä.

Aseta hiiri pisteen päälle nähdäksesi sääaseman nimen.

Klikkaa sitten nähdäksesi säähavainnot ja -ennusteet.

Kartan vaihtaminen: klikkaa mustalla rastilla varustettuja vihreitä pisteitä, niin voit zoomata sisään; viivalla varustettua vihreää pistettä, niin voit zoomata ulos tai vihreitä nuolia, niin pääset viereisille kartoille.


METAR-TAF: